Time;durP1;ratioP1;P1;durP2;ratioP2;P2;SDS_P1;SDS_P2;PMS_P1;PMS_P2;Temp;Humidity;BMP_temperature;BMP_pressure;BME280_temperature;BME280_humidity;BME280_pressure;Samples;Min_cycle;Max_cycle;Signal;HPM_P1;HPM_P2
2022/07/22 00:02:05;;;;;;;9.53;8.80;;;22.50;89.30;;;;;;5077261;28;20184;-52
2022/07/22 00:04:31;;;;;;;8.40;7.60;;;22.50;89.40;;;;;;5076773;28;20605;-52
2022/07/22 00:06:57;;;;;;;9.10;8.40;;;22.40;89.60;;;;;;5080372;28;20171;-54
2022/07/22 00:09:22;;;;;;;9.63;8.83;;;22.20;89.90;;;;;;5080351;28;20212;-52
2022/07/22 00:11:48;;;;;;;9.53;8.73;;;22.00;90.30;;;;;;5080194;28;20245;-52
2022/07/22 00:14:13;;;;;;;9.43;8.63;;;21.80;90.70;;;;;;5080299;28;20250;-50
2022/07/22 00:16:39;;;;;;;8.80;8.10;;;21.70;91.10;;;;;;5080258;28;20514;-53
2022/07/22 00:19:05;;;;;;;10.00;9.20;;;21.60;91.40;;;;;;5079678;28;20591;-53
2022/07/22 00:21:31;;;;;;;9.67;8.87;;;21.50;91.70;;;;;;5079285;28;20566;-51
2022/07/22 00:23:56;;;;;;;9.27;8.57;;;21.40;91.90;;;;;;5079164;28;20265;-53
2022/07/22 00:26:22;;;;;;;9.43;8.70;;;21.40;92.20;;;;;;5078101;28;20224;-50
2022/07/22 00:28:47;;;;;;;9.83;9.03;;;21.30;92.40;;;;;;5078415;28;20543;-53
2022/07/22 00:31:13;;;;;;;10.23;9.10;;;21.30;92.70;;;;;;5077797;28;20613;-53
2022/07/22 00:33:39;;;;;;;9.57;8.83;;;21.20;92.90;;;;;;5078099;28;20247;-52
2022/07/22 00:36:06;;;;;;;8.87;8.20;;;21.10;93.10;;;;;;5078971;28;20305;-54
2022/07/22 00:38:32;;;;;;;8.50;7.80;;;21.10;93.30;;;;;;5079164;28;20180;-52
2022/07/22 00:40:57;;;;;;;8.93;8.20;;;21.00;93.30;;;;;;5079893;28;20428;-50
2022/07/22 00:43:23;;;;;;;8.80;8.20;;;20.90;93.50;;;;;;5079514;28;20472;-53
2022/07/22 00:45:49;;;;;;;9.63;8.83;;;20.90;93.70;;;;;;5079264;28;20189;-51
2022/07/22 00:48:15;;;;;;;10.03;9.23;;;20.90;93.80;;;;;;5079801;28;20185;-52
2022/07/22 00:50:40;;;;;;;9.63;8.83;;;20.90;93.90;;;;;;5079571;28;20174;-53
2022/07/22 00:53:07;;;;;;;9.40;8.40;;;20.90;94.00;;;;;;5079135;28;20184;-51
2022/07/22 00:55:33;;;;;;;9.07;8.27;;;20.80;93.90;;;;;;5077208;28;20179;-53
2022/07/22 00:57:59;;;;;;;8.83;8.13;;;20.80;94.20;;;;;;5078418;28;20953;-51
2022/07/22 01:00:25;;;;;;;8.70;7.90;;;20.70;94.30;;;;;;5077418;28;20521;-50
2022/07/22 01:02:50;;;;;;;9.53;8.47;;;20.70;94.40;;;;;;5077076;28;20181;-49
2022/07/22 01:05:17;;;;;;;9.00;8.30;;;20.70;94.50;;;;;;5077781;28;20255;-51
2022/07/22 01:07:43;;;;;;;9.73;8.93;;;20.70;94.60;;;;;;5078675;28;20426;-52
2022/07/22 01:10:10;;;;;;;9.87;8.97;;;20.70;94.60;;;;;;5079251;28;20512;-50
2022/07/22 01:12:36;;;;;;;10.13;9.33;;;20.60;94.40;;;;;;5078069;28;20426;-54
2022/07/22 01:15:01;;;;;;;8.87;8.17;;;20.60;94.70;;;;;;5079398;28;20840;-53
2022/07/22 01:17:27;;;;;;;9.23;8.43;;;20.50;95.00;;;;;;5078465;28;20190;-50
2022/07/22 01:19:53;;;;;;;9.30;8.50;;;20.50;95.00;;;;;;5061101;28;20327;-53
2022/07/22 01:22:19;;;;;;;9.23;8.53;;;20.50;95.10;;;;;;5078832;28;20509;-52
2022/07/22 01:24:44;;;;;;;8.73;7.93;;;20.60;95.20;;;;;;5077321;28;20243;-52
2022/07/22 01:27:10;;;;;;;9.37;8.43;;;20.60;95.10;;;;;;5078622;28;20215;-51
2022/07/22 01:29:36;;;;;;;10.00;9.10;;;20.60;94.80;;;;;;5079141;28;20200;-51
2022/07/22 01:32:01;;;;;;;9.50;8.77;;;20.50;94.90;;;;;;5078545;28;20327;-51
2022/07/22 01:34:27;;;;;;;8.77;8.13;;;20.50;95.00;;;;;;5078779;28;20192;-53
2022/07/22 01:36:53;;;;;;;9.60;8.80;;;20.60;95.10;;;;;;5078191;28;20188;-52
2022/07/22 01:39:18;;;;;;;9.37;8.63;;;20.60;95.20;;;;;;5078890;28;20192;-51
2022/07/22 01:41:44;;;;;;;10.33;9.33;;;20.60;95.10;;;;;;5078540;28;20212;-52
2022/07/22 01:44:10;;;;;;;9.40;8.60;;;20.60;95.10;;;;;;5078218;28;20217;-54
2022/07/22 01:46:36;;;;;;;9.80;8.97;;;20.60;95.10;;;;;;5078123;28;20179;-56
2022/07/22 01:49:01;;;;;;;9.60;8.80;;;20.60;95.20;;;;;;5078862;28;20177;-53
2022/07/22 01:51:27;;;;;;;9.27;8.37;;;20.60;95.20;;;;;;5078209;28;20525;-54
2022/07/22 01:53:52;;;;;;;9.50;8.70;;;20.60;95.30;;;;;;5078653;28;20184;-53
2022/07/22 01:56:18;;;;;;;8.97;8.17;;;20.60;95.20;;;;;;5077080;28;20182;-50
2022/07/22 01:58:44;;;;;;;9.80;8.97;;;20.50;95.10;;;;;;5078358;28;20186;-52
2022/07/22 02:01:10;;;;;;;9.10;8.40;;;20.40;95.30;;;;;;5078294;28;20199;-51
2022/07/22 02:03:35;;;;;;;10.10;9.20;;;20.40;95.60;;;;;;5077979;28;20246;-51
2022/07/22 02:06:02;;;;;;;9.77;8.97;;;20.30;95.60;;;;;;5076629;28;20196;-53
2022/07/22 02:08:27;;;;;;;10.40;9.50;;;20.30;95.70;;;;;;5060320;28;20273;-54
2022/07/22 02:10:53;;;;;;;10.23;9.33;;;20.30;95.60;;;;;;5077780;28;20611;-51
2022/07/22 02:13:19;;;;;;;10.90;9.90;;;20.40;95.70;;;;;;5076689;28;20188;-50
2022/07/22 02:15:44;;;;;;;9.80;8.80;;;20.40;95.70;;;;;;5077963;28;20217;-50
2022/07/22 02:18:15;;;;;;;9.90;9.13;;;20.30;95.80;;;;;;5077652;28;20188;-53
2022/07/22 02:20:41;;;;;;;9.67;8.97;;;20.30;95.90;;;;;;5077819;28;20236;-51
2022/07/22 02:23:06;;;;;;;9.30;8.60;;;20.20;96.00;;;;;;5077387;28;20467;-53
2022/07/22 02:25:33;;;;;;;9.27;8.57;;;20.20;96.10;;;;;;5077057;28;20551;-54
2022/07/22 02:28:00;;;;;;;10.03;9.23;;;20.20;96.00;;;;;;5076147;28;20456;-51
2022/07/22 02:30:25;;;;;;;9.27;8.27;;;20.20;96.00;;;;;;5076835;28;20489;-51
2022/07/22 02:32:51;;;;;;;10.27;9.37;;;20.20;96.00;;;;;;5077553;28;20480;-51
2022/07/22 02:35:17;;;;;;;10.27;9.37;;;20.20;95.90;;;;;;5077796;28;20420;-50
2022/07/22 02:37:42;;;;;;;10.20;9.40;;;20.20;96.10;;;;;;5077404;28;20178;-52
2022/07/22 02:40:09;;;;;;;10.27;9.47;;;20.20;96.10;;;;;;5078089;28;20182;-51
2022/07/22 02:42:34;;;;;;;9.10;8.40;;;20.20;96.10;;;;;;5077153;28;20171;-50
2022/07/22 02:45:00;;;;;;;11.00;9.63;;;20.20;96.30;;;;;;5077378;28;20883;-50
2022/07/22 02:47:26;;;;;;;9.70;9.00;;;20.20;96.00;;;;;;5077521;28;20179;-51
2022/07/22 02:49:52;;;;;;;9.23;8.53;;;20.10;96.10;;;;;;5077230;28;20521;-52
2022/07/22 02:52:17;;;;;;;9.50;8.60;;;20.10;96.10;;;;;;5077003;28;20180;-53
2022/07/22 02:54:43;;;;;;;9.40;8.53;;;20.00;96.30;;;;;;5076016;28;20183;-53
2022/07/22 02:57:09;;;;;;;9.70;8.80;;;20.00;96.50;;;;;;5074928;28;20193;-55
2022/07/22 02:59:35;;;;;;;9.23;8.53;;;20.00;96.50;;;;;;5076806;28;20261;-50
2022/07/22 03:02:01;;;;;;;10.27;9.47;;;20.00;96.40;;;;;;5076940;28;20222;-51
2022/07/22 03:04:26;;;;;;;9.47;8.73;;;20.00;96.40;;;;;;5075472;28;20215;-53
2022/07/22 03:06:52;;;;;;;10.10;9.20;;;20.00;96.20;;;;;;5075811;28;20534;-54
2022/07/22 03:09:17;;;;;;;9.93;9.00;;;20.00;96.30;;;;;;5076268;28;20264;-54
2022/07/22 03:11:43;;;;;;;10.70;9.60;;;20.00;96.20;;;;;;5076239;28;20232;-51
2022/07/22 03:14:09;;;;;;;10.37;9.47;;;20.00;96.30;;;;;;5076605;28;20240;-52
2022/07/22 03:16:34;;;;;;;9.97;9.27;;;20.00;96.30;;;;;;5076222;28;20184;-50
2022/07/22 03:19:00;;;;;;;9.97;9.17;;;20.00;96.30;;;;;;5076945;28;20193;-55
2022/07/22 03:21:26;;;;;;;10.23;9.43;;;20.00;96.30;;;;;;5077490;28;20601;-54
2022/07/22 03:23:53;;;;;;;9.17;8.37;;;20.00;96.20;;;;;;5077074;28;20670;-54
2022/07/22 03:26:20;;;;;;;9.63;8.73;;;20.00;96.30;;;;;;5076576;28;20539;-50
2022/07/22 03:28:46;;;;;;;12.10;9.47;;;19.90;96.50;;;;;;5075861;28;20419;-55
2022/07/22 03:31:12;;;;;;;10.20;9.30;;;19.90;96.60;;;;;;5076838;28;20467;-50
2022/07/22 03:33:38;;;;;;;9.43;8.63;;;19.90;96.60;;;;;;5077033;28;20596;-50
2022/07/22 03:36:05;;;;;;;9.40;8.70;;;19.90;96.60;;;;;;5076098;28;20187;-52
2022/07/22 03:38:31;;;;;;;8.70;8.00;;;19.90;96.60;;;;;;5076659;28;20225;-51
2022/07/22 03:40:56;;;;;;;9.60;8.80;;;19.90;96.60;;;;;;5079559;28;20435;-51
2022/07/22 03:43:22;;;;;;;9.60;8.70;;;19.80;96.60;;;;;;5080596;28;20545;-54
2022/07/22 03:45:48;;;;;;;9.40;8.70;;;19.80;96.60;;;;;;5079984;28;20184;-52
2022/07/22 03:48:13;;;;;;;9.73;9.03;;;19.80;96.60;;;;;;5081055;28;20270;-52
2022/07/22 03:50:39;;;;;;;9.83;9.03;;;19.90;96.50;;;;;;5079787;28;20192;-54
2022/07/22 03:53:04;;;;;;;9.43;8.70;;;19.90;96.50;;;;;;5079617;28;20237;-51
2022/07/22 03:55:30;;;;;;;9.27;8.50;;;19.80;96.50;;;;;;5077631;28;20669;-53
2022/07/22 03:57:55;;;;;;;10.50;9.60;;;19.80;96.60;;;;;;5079106;28;20177;-52
2022/07/22 04:00:21;;;;;;;10.17;9.33;;;19.80;96.60;;;;;;5079602;28;20178;-51
2022/07/22 04:02:47;;;;;;;11.53;9.60;;;19.80;96.50;;;;;;5078262;28;20273;-52
2022/07/22 04:05:12;;;;;;;10.57;9.70;;;19.80;96.50;;;;;;5078989;28;20193;-52
2022/07/22 04:07:38;;;;;;;10.50;9.60;;;19.90;96.50;;;;;;5076262;28;20209;-53
2022/07/22 04:10:07;;;;;;;10.17;9.37;;;19.90;96.40;;;;;;5077400;28;20552;-53
2022/07/22 04:12:37;;;;;;;9.43;8.63;;;19.90;96.40;;;;;;5076404;28;20325;-53
2022/07/22 04:15:04;;;;;;;9.77;8.87;;;19.90;96.30;;;;;;5076210;28;20433;-52
2022/07/22 04:17:29;;;;;;;9.90;9.10;;;19.90;96.30;;;;;;5076296;28;20481;-51
2022/07/22 04:19:55;;;;;;;9.93;9.13;;;19.90;96.20;;;;;;5076578;28;20473;-52
2022/07/22 04:22:21;;;;;;;10.00;9.13;;;19.90;96.10;;;;;;5078210;28;20183;-52
2022/07/22 04:24:47;;;;;;;10.03;9.20;;;19.90;96.10;;;;;;5076508;28;20468;-51
2022/07/22 04:27:12;;;;;;;11.07;10.10;;;19.90;96.10;;;;;;5076409;28;20321;-51
2022/07/22 04:29:38;;;;;;;9.17;8.47;;;19.90;96.10;;;;;;5076225;28;20275;-54
2022/07/22 04:32:04;;;;;;;9.83;9.03;;;19.90;96.10;;;;;;5077099;28;20552;-50
2022/07/22 04:34:29;;;;;;;10.33;9.50;;;20.00;96.10;;;;;;5076003;28;20190;-52
2022/07/22 04:36:55;;;;;;;10.43;9.50;;;20.00;96.10;;;;;;5074997;28;20943;-52
2022/07/22 04:39:20;;;;;;;11.00;10.00;;;20.00;95.80;;;;;;5073896;28;20257;-53
2022/07/22 04:41:46;;;;;;;10.37;9.50;;;20.00;95.90;;;;;;5074774;28;20326;-54
2022/07/22 04:44:12;;;;;;;10.83;9.30;;;20.00;95.90;;;;;;5075010;28;20501;-52
2022/07/22 04:46:37;;;;;;;11.20;10.27;;;20.00;95.90;;;;;;5075372;28;20189;-52
2022/07/22 04:49:03;;;;;;;11.67;10.50;;;20.10;95.90;;;;;;5075552;28;20463;-53
2022/07/22 04:51:28;;;;;;;11.03;10.20;;;20.10;95.80;;;;;;5072475;28;20205;-57
2022/07/22 04:53:55;;;;;;;10.27;9.47;;;20.10;95.70;;;;;;5073430;28;20187;-51
2022/07/22 04:56:20;;;;;;;10.43;9.53;;;20.20;95.80;;;;;;5072032;28;20493;-51
2022/07/22 04:58:46;;;;;;;10.03;9.23;;;20.20;95.70;;;;;;5073779;28;20706;-54
2022/07/22 05:01:12;;;;;;;9.43;8.73;;;20.20;95.50;;;;;;5074612;28;20187;-54
2022/07/22 05:03:39;;;;;;;10.53;9.73;;;20.30;95.30;;;;;;5074306;28;20207;-51
2022/07/22 05:06:04;;;;;;;11.63;10.53;;;20.30;95.20;;;;;;5076032;28;20181;-51
2022/07/22 05:08:30;;;;;;;11.77;10.87;;;20.30;95.20;;;;;;5076108;28;20476;-53
2022/07/22 05:10:55;;;;;;;10.27;9.20;;;20.40;95.20;;;;;;5078081;28;20183;-52
2022/07/22 05:13:21;;;;;;;11.00;10.00;;;20.40;95.30;;;;;;5077793;28;20176;-51
2022/07/22 05:15:47;;;;;;;11.13;10.23;;;20.40;95.10;;;;;;5076828;28;20204;-51
2022/07/22 05:18:12;;;;;;;11.73;10.73;;;20.40;95.10;;;;;;5075712;28;20185;-53
2022/07/22 05:20:38;;;;;;;10.60;9.70;;;20.40;95.20;;;;;;5075483;28;20184;-54
2022/07/22 05:23:04;;;;;;;11.20;10.30;;;20.50;95.20;;;;;;5074910;28;20471;-56
2022/07/22 05:25:30;;;;;;;9.90;9.20;;;20.50;95.10;;;;;;5075416;28;20257;-56
2022/07/22 05:27:56;;;;;;;11.00;10.10;;;20.50;95.20;;;;;;5074301;28;20419;-51
2022/07/22 05:30:22;;;;;;;12.90;11.60;;;20.60;95.00;;;;;;5071794;28;20413;-53
2022/07/22 05:32:48;;;;;;;11.90;10.90;;;20.70;95.00;;;;;;5071780;28;21047;-53
2022/07/22 05:35:13;;;;;;;11.50;10.50;;;20.80;94.80;;;;;;5072823;28;20196;-53
2022/07/22 05:37:39;;;;;;;12.63;11.43;;;20.90;94.70;;;;;;5071071;28;20185;-55
2022/07/22 05:40:06;;;;;;;11.40;10.43;;;21.00;94.50;;;;;;5074744;28;20571;-55
2022/07/22 05:42:31;;;;;;;11.60;10.70;;;21.10;94.50;;;;;;5074046;28;20435;-55
2022/07/22 05:44:57;;;;;;;12.30;11.20;;;21.10;94.40;;;;;;5073955;28;21077;-53
2022/07/22 05:47:24;;;;;;;13.50;12.20;;;21.20;94.50;;;;;;5073979;28;20180;-55
2022/07/22 05:49:51;;;;;;;12.23;11.13;;;21.20;94.40;;;;;;5074126;28;20442;-55
2022/07/22 05:52:17;;;;;;;12.70;11.60;;;21.20;94.50;;;;;;5072654;28;20829;-50
2022/07/22 05:54:43;;;;;;;12.20;11.10;;;21.30;94.40;;;;;;5072836;28;20194;-54
2022/07/22 05:57:09;;;;;;;12.33;11.30;;;21.50;94.30;;;;;;5071336;28;20828;-52
2022/07/22 05:59:35;;;;;;;12.87;11.57;;;21.60;94.10;;;;;;5070015;28;20236;-52
2022/07/22 06:02:01;;;;;;;12.20;11.20;;;21.70;94.20;;;;;;5070930;28;20429;-53
2022/07/22 06:04:27;;;;;;;12.20;11.30;;;21.70;94.00;;;;;;5068984;28;20790;-50
2022/07/22 06:06:52;;;;;;;11.73;10.83;;;21.80;94.00;;;;;;5071859;28;20369;-51
2022/07/22 06:09:18;;;;;;;11.83;10.90;;;21.90;93.80;;;;;;5071618;28;20181;-51
2022/07/22 06:11:44;;;;;;;11.50;10.60;;;22.00;93.80;;;;;;5069050;28;20249;-52
2022/07/22 06:14:09;;;;;;;12.57;11.57;;;22.10;93.70;;;;;;5071896;28;20255;-51
2022/07/22 06:16:35;;;;;;;12.67;11.47;;;22.20;93.60;;;;;;5071305;28;20401;-50
2022/07/22 06:19:01;;;;;;;12.20;11.10;;;22.30;93.30;;;;;;5070838;28;20472;-52
2022/07/22 06:21:27;;;;;;;12.87;11.83;;;22.40;93.20;;;;;;5069916;28;20175;-54
2022/07/22 06:23:52;;;;;;;12.90;11.73;;;22.50;93.00;;;;;;5071609;28;20498;-50
2022/07/22 06:26:18;;;;;;;10.90;9.93;;;22.60;92.90;;;;;;5072830;28;20178;-50
2022/07/22 06:28:44;;;;;;;11.20;10.30;;;22.70;92.80;;;;;;5074176;28;20549;-53
2022/07/22 06:31:10;;;;;;;11.80;10.67;;;22.80;92.60;;;;;;5073582;28;20321;-53
2022/07/22 06:33:37;;;;;;;11.73;10.67;;;22.90;92.30;;;;;;5071349;28;20178;-54
2022/07/22 06:36:03;;;;;;;11.57;10.57;;;23.10;92.30;;;;;;5070761;28;20529;-52
2022/07/22 06:38:29;;;;;;;12.17;11.17;;;23.20;92.00;;;;;;5072518;28;20449;-54
2022/07/22 06:40:54;;;;;;;11.50;10.60;;;23.30;92.00;;;;;;5073962;28;20403;-51
2022/07/22 06:43:20;;;;;;;12.67;11.57;;;23.40;91.70;;;;;;5070854;28;20469;-51
2022/07/22 06:45:46;;;;;;;12.40;11.40;;;23.50;91.70;;;;;;5071184;28;20575;-55
2022/07/22 06:48:12;;;;;;;11.10;10.20;;;23.70;91.50;;;;;;5073561;28;20199;-54
2022/07/22 06:50:37;;;;;;;11.50;10.50;;;23.80;91.00;;;;;;5074680;28;20184;-52
2022/07/22 06:53:03;;;;;;;11.03;10.23;;;23.90;90.80;;;;;;5075294;28;20195;-51
2022/07/22 06:55:29;;;;;;;10.97;9.90;;;24.00;90.90;;;;;;5068787;28;20210;-51
2022/07/22 06:57:54;;;;;;;11.87;10.87;;;24.20;90.60;;;;;;5053410;28;20718;-51
2022/07/22 07:00:20;;;;;;;12.67;11.57;;;24.40;90.30;;;;;;5055044;28;20417;-52
2022/07/22 07:02:47;;;;;;;12.73;11.67;;;24.60;90.10;;;;;;5053896;28;20181;-51
2022/07/22 07:05:13;;;;;;;12.17;11.27;;;24.70;88.50;;;;;;5065748;28;20224;-53
2022/07/22 07:07:39;;;;;;;12.40;11.40;;;24.70;88.40;;;;;;5072582;28;20441;-52
2022/07/22 07:10:05;;;;;;;12.60;11.60;;;24.70;87.90;;;;;;5073660;28;20561;-55
2022/07/22 07:12:31;;;;;;;12.60;11.60;;;24.70;87.80;;;;;;5073552;28;20170;-51
2022/07/22 07:14:56;;;;;;;12.63;11.63;;;24.80;87.60;;;;;;5072869;28;20425;-53
2022/07/22 07:17:24;;;;;;;11.40;10.50;;;24.80;86.80;;;;;;5075015;28;20440;-51
2022/07/22 07:19:49;;;;;;;12.10;11.13;;;24.80;87.50;;;;;;5075278;28;20178;-54
2022/07/22 07:22:15;;;;;;;12.07;11.07;;;24.90;86.40;;;;;;5075837;28;20423;-55
2022/07/22 07:24:41;;;;;;;13.00;11.90;;;24.90;86.50;;;;;;5076242;28;20598;-53
2022/07/22 07:27:06;;;;;;;11.30;10.40;;;25.10;86.40;;;;;;5074737;28;20467;-55
2022/07/22 07:29:32;;;;;;;12.80;11.70;;;25.30;85.70;;;;;;5075234;28;20770;-51
2022/07/22 07:31:58;;;;;;;13.20;12.10;;;25.40;84.50;;;;;;5075086;28;20246;-51
2022/07/22 07:34:25;;;;;;;14.80;13.67;;;25.40;84.00;;;;;;5076295;28;20525;-52
2022/07/22 07:36:50;;;;;;;13.07;12.07;;;25.30;84.80;;;;;;5077331;28;20417;-54
2022/07/22 07:39:16;;;;;;;12.10;11.20;;;25.30;86.20;;;;;;5077607;28;20424;-54
2022/07/22 07:41:42;;;;;;;12.30;11.30;;;25.50;86.20;;;;;;5077970;28;20270;-52
2022/07/22 07:44:07;;;;;;;12.13;11.13;;;25.80;85.50;;;;;;5078200;28;20306;-53
2022/07/22 07:46:33;;;;;;;12.80;11.77;;;26.20;84.40;;;;;;5076942;28;20176;-55
2022/07/22 07:48:58;;;;;;;13.97;12.73;;;26.40;82.40;;;;;;5076850;28;20191;-52
2022/07/22 07:51:24;;;;;;;12.73;11.60;;;26.40;82.20;;;;;;5074811;28;20177;-56
2022/07/22 07:53:50;;;;;;;12.70;11.70;;;26.40;82.20;;;;;;5073976;28;20642;-53
2022/07/22 07:56:16;;;;;;;12.57;11.57;;;26.40;82.50;;;;;;5074874;28;20644;-54
2022/07/22 07:58:42;;;;;;;12.40;11.30;;;26.60;81.30;;;;;;5073287;28;20419;-53
2022/07/22 08:01:07;;;;;;;12.50;11.30;;;26.70;81.10;;;;;;5074733;28;20173;-53
2022/07/22 08:03:33;;;;;;;13.40;12.10;;;26.90;80.60;;;;;;5073509;28;20201;-54
2022/07/22 08:05:59;;;;;;;12.97;11.83;;;27.00;78.90;;;;;;5072667;28;20477;-53
2022/07/22 08:08:25;;;;;;;12.37;11.43;;;26.90;80.10;;;;;;5074989;28;20524;-56
2022/07/22 08:10:51;;;;;;;11.63;10.73;;;27.10;79.10;;;;;;5076435;28;20411;-54
2022/07/22 08:13:17;;;;;;;12.00;11.00;;;27.20;78.70;;;;;;5076149;28;20850;-46
2022/07/22 08:15:43;;;;;;;12.10;11.03;;;27.30;77.70;;;;;;5075797;28;20565;-41
2022/07/22 08:18:08;;;;;;;13.27;12.07;;;27.40;78.00;;;;;;5075258;28;20690;-42
2022/07/22 08:20:34;;;;;;;13.17;12.07;;;27.50;77.10;;;;;;5076720;28;20215;-43
2022/07/22 08:23:00;;;;;;;14.13;12.70;;;27.70;77.10;;;;;;5074292;28;20560;-42
2022/07/22 08:25:25;;;;;;;12.10;11.00;;;28.10;77.30;;;;;;5076275;28;20329;-40
2022/07/22 08:27:51;;;;;;;13.40;12.10;;;28.50;74.80;;;;;;5075727;28;20260;-41
2022/07/22 08:30:18;;;;;;;11.20;10.37;;;28.60;72.60;;;;;;5075694;28;20439;-42
2022/07/22 08:32:44;;;;;;;11.50;10.60;;;28.80;73.30;;;;;;5074687;28;20743;-42
2022/07/22 08:35:10;;;;;;;11.07;10.17;;;29.10;72.00;;;;;;5077481;28;20493;-45
2022/07/22 08:37:37;;;;;;;12.17;11.23;;;29.30;71.30;;;;;;5076705;28;20560;-43
2022/07/22 08:40:05;;;;;;;12.17;11.10;;;29.80;68.20;;;;;;5077280;28;20406;-42
2022/07/22 08:42:30;;;;;;;12.10;11.10;;;30.00;66.40;;;;;;5077740;28;20194;-42
2022/07/22 08:44:56;;;;;;;11.03;10.13;;;30.10;67.10;;;;;;5077174;28;20462;-44
2022/07/22 08:47:23;;;;;;;12.20;11.20;;;30.50;67.30;;;;;;5075144;28;20450;-43
2022/07/22 08:49:49;;;;;;;11.53;10.63;;;30.80;64.70;;;;;;5075981;28;20185;-42
2022/07/22 08:52:15;;;;;;;11.60;10.70;;;31.00;61.30;;;;;;5074873;28;20755;-43
2022/07/22 08:54:41;;;;;;;11.70;10.63;;;31.30;60.90;;;;;;5077213;28;20419;-44
2022/07/22 08:57:06;;;;;;;10.70;9.80;;;31.60;57.90;;;;;;5076068;28;20705;-43
2022/07/22 08:59:32;;;;;;;12.17;10.30;;;31.60;57.70;;;;;;5072616;28;20382;-44
2022/07/22 09:02:09;;;;;;;11.57;10.57;;;31.50;59.30;;;;;;5071583;28;20564;-44
2022/07/22 09:04:54;;;;;;;10.77;10.07;;;31.60;57.90;;;;;;5069155;28;20548;-44
2022/07/22 09:07:31;;;;;;;11.33;10.57;;;31.80;57.90;;;;;;5072959;28;20467;-43
2022/07/22 09:09:58;;;;;;;12.87;11.87;;;32.00;56.00;;;;;;5073720;28;20564;-42
2022/07/22 09:12:24;;;;;;;11.90;10.67;;;32.00;56.60;;;;;;5073525;28;20524;-43
2022/07/22 09:14:52;;;;;;;11.17;10.37;;;32.10;56.90;;;;;;5073582;28;20498;-43
2022/07/22 09:17:35;;;;;;;10.97;10.17;;;32.40;56.40;;;;;;5075247;28;20622;-42
2022/07/22 09:20:04;;;;;;;11.10;10.20;;;32.70;56.00;;;;;;5076917;28;20408;-43
2022/07/22 09:22:39;;;;;;;12.67;11.67;;;33.00;55.10;;;;;;5075548;28;20396;-41
2022/07/22 09:25:20;;;;;;;15.63;14.43;;;33.10;52.30;;;;;;5075892;28;20750;-43
2022/07/22 09:27:46;;;;;;;12.00;10.70;;;33.00;51.70;;;;;;5075825;28;20398;-43
2022/07/22 09:30:23;;;;;;;10.73;9.70;;;32.70;53.40;;;;;;5076227;28;20797;-47
2022/07/22 09:32:50;;;;;;;10.30;9.57;;;32.70;53.80;;;;;;5073969;28;20534;-43
2022/07/22 09:35:16;;;;;;;10.63;9.83;;;33.10;51.60;;;;;;5073863;28;20738;-43
2022/07/22 09:38:00;;;;;;;11.50;10.67;;;33.10;50.90;;;;;;5074594;28;20427;-45
2022/07/22 09:40:28;;;;;;;10.80;10.10;;;33.20;51.20;;;;;;5076586;28;20166;-41
2022/07/22 09:42:57;;;;;;;11.57;10.73;;;32.90;50.50;;;;;;5075740;28;20430;-44
2022/07/22 09:45:24;;;;;;;11.63;10.10;;;33.10;50.50;;;;;;5074497;28;20462;-42
2022/07/22 09:47:50;;;;;;;11.07;10.17;;;33.20;52.00;;;;;;5073484;28;20413;-45
2022/07/22 09:50:25;;;;;;;10.30;9.50;;;33.30;49.70;;;;;;5074384;28;20687;-46
2022/07/22 09:52:54;;;;;;;11.20;10.30;;;32.90;49.80;;;;;;5076378;28;20427;-42
2022/07/22 09:55:21;;;;;;;10.93;10.10;;;32.70;51.20;;;;;;5075341;28;20792;-43
2022/07/22 09:57:48;;;;;;;10.70;9.80;;;33.00;49.70;;;;;;5073659;28;20443;-44
2022/07/22 10:00:16;;;;;;;10.87;9.80;;;33.10;51.10;;;;;;5074904;28;20419;-44
2022/07/22 10:02:50;;;;;;;11.17;10.37;;;33.50;51.00;;;;;;5074471;28;20425;-43
2022/07/22 10:05:19;;;;;;;11.77;10.97;;;33.90;48.60;;;;;;5075073;28;20455;-46
2022/07/22 10:07:45;;;;;;;11.13;10.33;;;33.80;48.40;;;;;;5074961;28;20425;-42
2022/07/22 10:10:16;;;;;;;10.53;9.73;;;33.60;48.00;;;;;;5073619;28;20508;-42
2022/07/22 10:12:43;;;;;;;10.93;10.23;;;33.40;48.20;;;;;;5075054;28;20432;-42
2022/07/22 10:15:10;;;;;;;10.83;10.03;;;32.90;49.20;;;;;;5076541;28;20452;-43
2022/07/22 10:17:37;;;;;;;10.90;10.03;;;33.00;49.80;;;;;;5074089;28;20571;-46
2022/07/22 10:20:05;;;;;;;10.37;9.57;;;33.30;51.50;;;;;;5073176;28;20765;-42
2022/07/22 10:22:43;;;;;;;11.17;10.30;;;33.80;48.40;;;;;;5072614;28;20521;-43
2022/07/22 10:25:10;;;;;;;12.00;10.90;;;34.00;48.50;;;;;;5071165;28;20439;-46
2022/07/22 10:27:50;;;;;;;11.07;10.10;;;34.00;48.10;;;;;;5071852;28;20394;-41
2022/07/22 10:30:22;;;;;;;10.40;9.60;;;33.90;47.50;;;;;;5072806;28;20389;-45
2022/07/22 10:33:14;;;;;;;11.13;10.23;;;33.60;47.40;;;;;;5072622;28;20448;-42
2022/07/22 10:35:59;;;;;;;11.07;10.27;;;33.80;47.60;;;;;;5073886;28;20843;-43
2022/07/22 10:38:27;;;;;;;10.40;9.63;;;33.80;47.20;;;;;;5068120;28;20784;-45
2022/07/22 10:41:05;;;;;;;12.67;11.37;;;33.70;47.30;;;;;;5072669;28;20466;-46
2022/07/22 10:43:44;;;;;;;11.77;10.97;;;33.50;47.60;;;;;;5074322;28;20469;-45
2022/07/22 10:46:10;;;;;;;11.80;10.77;;;33.10;48.20;;;;;;5074047;28;20446;-43
2022/07/22 10:48:35;;;;;;;10.90;10.00;;;33.00;48.30;;;;;;5071477;28;20984;-42
2022/07/22 10:51:12;;;;;;;12.70;11.60;;;33.00;47.60;;;;;;5074230;28;20167;-43
2022/07/22 10:53:46;;;;;;;16.53;11.20;;;33.40;47.10;;;;;;5073492;28;20194;-42
2022/07/22 10:56:21;;;;;;;11.70;10.70;;;34.10;47.30;;;;;;5072845;28;20460;-45
2022/07/22 10:59:12;;;;;;;11.37;10.37;;;34.60;46.30;;;;;;5071260;28;20511;-44
2022/07/22 11:01:46;;;;;;;11.30;10.50;;;35.00;46.10;;;;;;5075328;28;20455;-45
2022/07/22 11:04:21;;;;;;;9.97;9.27;;;35.00;44.40;;;;;;5071572;28;20504;-42
2022/07/22 11:06:48;;;;;;;10.47;9.77;;;34.80;44.30;;;;;;5072565;28;20544;-46
2022/07/22 11:09:15;;;;;;;11.60;10.80;;;34.80;44.30;;;;;;5069916;28;20712;-45
2022/07/22 11:11:49;;;;;;;10.70;9.90;;;34.50;44.20;;;;;;5072326;28;20744;-43
2022/07/22 11:14:25;;;;;;;10.10;9.33;;;34.10;45.10;;;;;;5073864;28;20558;-44
2022/07/22 11:16:51;;;;;;;10.80;10.10;;;34.00;45.30;;;;;;5071012;28;20405;-43
2022/07/22 11:19:28;;;;;;;10.90;10.00;;;34.10;45.10;;;;;;5072438;28;20688;-45
2022/07/22 11:21:56;;;;;;;13.83;9.90;;;34.40;45.30;;;;;;5072372;28;20434;-42
2022/07/22 11:24:24;;;;;;;10.57;9.77;;;34.90;45.10;;;;;;5068879;28;20529;-44
2022/07/22 11:26:51;;;;;;;11.37;10.40;;;35.50;43.70;;;;;;5069954;28;20735;-44
2022/07/22 11:29:40;;;;;;;11.93;10.50;;;35.50;44.30;;;;;;5067737;28;20762;-45
2022/07/22 11:32:08;;;;;;;11.10;10.00;;;35.90;43.50;;;;;;5068913;28;20556;-43
2022/07/22 11:34:37;;;;;;;10.43;9.47;;;35.90;42.00;;;;;;5069645;28;20521;-44
2022/07/22 11:37:02;;;;;;;11.10;10.20;;;35.60;42.30;;;;;;5067774;28;20507;-41
2022/07/22 11:39:30;;;;;;;11.20;10.40;;;34.90;42.90;;;;;;5069675;28;20389;-41
2022/07/22 11:41:59;;;;;;;11.50;10.40;;;34.50;43.20;;;;;;5072777;28;20183;-41
2022/07/22 11:44:27;;;;;;;10.10;9.33;;;34.30;43.40;;;;;;5071690;28;20579;-44
2022/07/22 11:46:58;;;;;;;10.37;9.67;;;34.10;43.60;;;;;;5072043;28;20833;-44
2022/07/22 11:49:23;;;;;;;11.03;10.03;;;33.70;44.90;;;;;;5069234;28;20737;-44
2022/07/22 11:51:51;;;;;;;10.70;9.90;;;34.60;43.80;;;;;;5058152;28;20437;-44
2022/07/22 11:54:17;;;;;;;11.03;10.23;;;35.40;44.70;;;;;;5073532;28;20259;-44
2022/07/22 11:56:43;;;;;;;10.80;9.97;;;36.20;42.50;;;;;;5073506;28;20402;-42
2022/07/22 11:59:13;;;;;;;10.20;9.50;;;36.30;41.50;;;;;;5072492;28;20188;-43
2022/07/22 12:01:40;;;;;;;10.47;9.67;;;35.90;43.10;;;;;;5073418;28;20210;-43
2022/07/22 12:04:11;;;;;;;11.27;10.33;;;36.60;43.60;;;;;;5074753;28;20459;-44
2022/07/22 12:06:39;;;;;;;9.93;9.13;;;37.60;41.20;;;;;;5075034;28;20429;-44
2022/07/22 12:09:08;;;;;;;10.00;9.30;;;37.90;39.50;;;;;;5073786;28;20499;-44
2022/07/22 12:11:36;;;;;;;9.30;8.70;;;37.80;40.80;;;;;;5072801;28;20419;-43
2022/07/22 12:14:13;;;;;;;11.83;11.00;;;38.60;42.10;;;;;;5073309;28;20807;-43
2022/07/22 12:16:41;;;;;;;12.90;10.47;;;38.90;39.60;;;;;;5073080;28;20878;-43
2022/07/22 12:19:12;;;;;;;10.60;9.80;;;38.90;37.70;;;;;;5073877;28;20428;-44
2022/07/22 12:21:57;;;;;;;10.07;9.27;;;39.00;38.70;;;;;;5074485;28;20596;-46
2022/07/22 12:24:28;;;;;;;10.87;10.07;;;39.40;39.40;;;;;;5075885;28;20456;-44
2022/07/22 12:26:57;;;;;;;10.53;9.80;;;40.00;38.60;;;;;;5076295;28;20430;-44
2022/07/22 12:29:31;;;;;;;11.10;10.30;;;40.30;38.90;;;;;;5076175;28;20422;-43
2022/07/22 12:32:08;;;;;;;11.00;10.10;;;40.40;38.60;;;;;;5073714;28;20539;-44
2022/07/22 12:34:43;;;;;;;10.10;9.50;;;40.90;37.10;;;;;;5076794;28;20407;-45
2022/07/22 12:37:28;;;;;;;9.70;9.03;;;41.40;36.30;;;;;;5078361;28;20410;-42